Aérodrome :
LOGIN :

S'inscrire | Disclaimer

   EN    FR    IT 

 










Légende :    VFR   VFR Marginal   IFR   IFR Intensif   IFR Très Intensif
Visi : 
Plafond : 
>= 8 km
>= 3000ft
5 à 8 km
1000 à 3000 ft
1500m à 5 km
500 à 1000 ft
800 à 1500m
200 à 500 ft
< 800m
< 200 ft
Symboles :   Orages  Brouillard  Fortes neiges  Fortes précipitations  Vent > 20 kt
SIGMETs :   Divers  Orages  Givrage  Turbulence  Onde Orograph.  Cendres Volcan.







- Altitude de l'aérodrome : 22 ft
- Code IATA : TUN


DTTA - Tunis Carthage

DERNIER METAR :
  • 232300Z 04003KT 010V070 CAVOK 22/19 Q1018 NOSIG

METARs EXPIRÉS :
  • 232230Z 04003KT 010V070 CAVOK 23/19 Q1018 NOSIG
  • 232200Z 04003KT 010V090 CAVOK 24/19 Q1018 NOSIG
  • 232130Z 05003KT 020V090 CAVOK 24/19 Q1018 NOSIG
  • 232100Z VRB02KT CAVOK 24/19 Q1018 NOSIG
  • 232030Z 04003KT 010V070 CAVOK 24/19 Q1017 NOSIG

TAF TAF DTTA
Valide du 23 à 18h jusqu'au 24 à 18h UTC


231710Z 2318/2418 07008KT CAVOK
TEMPO 2322/2409 01004KT
Pas de NOTAMs connus pour ce terrain.



MET'MAP, la Météo Aéronautique d'un coup d'oeil ! - Copyright ORBIFLY Décembre 2007 - Disclaimer

ORBIFLY MET'MAP TEAM :

Programmation & Développement : Alexandra Zaïnal
Conception & Développement : Baudouin d'Aumeries
Co-Programmation & Développement : Marc-Olivier Méhu
Soutien technique & logistique : Manuel Goepfert

Contact : metmap@orbifly.com




SOURCES & CREDITS :

   NOAA